createdAt,value
2023-03-07T00:02:58.653Z,20.83
2023-03-07T00:09:02.441Z,20.43
2023-03-07T00:15:05.025Z,19.50
2023-03-07T00:21:10.289Z,22.00
2023-03-07T00:27:12.406Z,19.52
2023-03-07T00:33:14.855Z,21.40
2023-03-07T00:39:17.282Z,20.55
2023-03-07T00:45:19.579Z,20.65
2023-03-07T00:51:23.927Z,20.63
2023-03-07T00:57:26.061Z,21.20
2023-03-07T01:03:28.530Z,15.93
2023-03-07T01:09:30.674Z,32.47
2023-03-07T01:15:33.270Z,21.95
2023-03-07T01:27:42.282Z,27.45
2023-03-07T01:33:44.547Z,28.08
2023-03-07T01:39:46.878Z,27.75
2023-03-07T01:45:52.214Z,28.55
2023-03-07T01:51:58.541Z,26.92
2023-03-07T01:58:09.132Z,25.98
2023-03-07T02:04:21.494Z,27.23
2023-03-07T02:10:24.671Z,27.42
2023-03-07T02:16:28.293Z,28.33
2023-03-07T02:22:31.183Z,26.00
2023-03-07T02:28:34.625Z,27.08
2023-03-07T02:34:37.785Z,27.55
2023-03-07T02:40:45.042Z,24.60
2023-03-07T02:46:47.901Z,26.92
2023-03-07T02:52:50.747Z,29.02
2023-03-07T02:58:53.352Z,26.65
2023-03-07T03:04:55.707Z,27.75
2023-03-07T03:10:58.964Z,29.35
2023-03-07T03:17:04.248Z,28.63
2023-03-07T03:23:06.708Z,28.00
2023-03-07T03:29:10.233Z,30.45
2023-03-07T03:35:14.767Z,31.52
2023-03-07T03:41:17.643Z,32.65
2023-03-07T03:47:22.387Z,27.92
2023-03-07T03:53:24.727Z,26.90
2023-03-07T03:59:27.378Z,27.23
2023-03-07T04:05:29.739Z,27.45
2023-03-07T04:11:33.040Z,31.15
2023-03-07T04:17:36.042Z,27.83
2023-03-07T04:23:39.616Z,29.23
2023-03-07T04:35:57.005Z,37.00
2023-03-07T04:41:59.324Z,37.05
2023-03-07T04:48:05.881Z,34.55
2023-03-07T04:54:10.992Z,32.33
2023-03-07T05:00:14.054Z,29.77
2023-03-07T05:06:17.353Z,32.22
2023-03-07T05:12:25.283Z,27.00
2023-03-07T05:18:29.171Z,30.65
2023-03-07T05:24:33.401Z,30.40
2023-03-07T05:30:36.621Z,33.15
2023-03-07T05:36:38.835Z,30.00
2023-03-07T05:42:41.314Z,32.47
2023-03-07T05:48:43.642Z,35.17
2023-03-07T05:54:47.071Z,30.80
2023-03-07T06:00:49.801Z,33.60
2023-03-07T06:06:53.576Z,34.13
2023-03-07T06:12:56.301Z,29.98
2023-03-07T06:18:58.500Z,32.05
2023-03-07T06:25:01.089Z,32.88
2023-03-07T06:31:12.835Z,31.08
2023-03-07T06:37:15.417Z,43.78
2023-03-07T06:49:20.457Z,31.55
2023-03-07T06:55:24.022Z,30.50
2023-03-07T07:01:26.417Z,28.58
2023-03-07T07:07:31.191Z,28.70
2023-03-07T07:13:34.754Z,26.50
2023-03-07T07:19:37.987Z,30.63
2023-03-07T07:31:42.610Z,30.75
2023-03-07T07:37:45.581Z,30.92
2023-03-07T07:43:50.287Z,31.20
2023-03-07T07:50:09.440Z,31.38
2023-03-07T07:56:11.855Z,29.00
2023-03-07T08:02:14.165Z,24.65
2023-03-07T08:08:17.314Z,21.38
2023-03-07T08:14:19.737Z,22.40
2023-03-07T08:20:24.131Z,25.48
2023-03-07T08:26:26.846Z,23.13
2023-03-07T08:32:28.979Z,20.98
2023-03-07T08:38:31.700Z,23.25
2023-03-07T08:44:34.254Z,22.35
2023-03-07T08:50:37.115Z,22.15
2023-03-07T08:56:39.382Z,18.75
2023-03-07T09:02:41.666Z,19.00
2023-03-07T09:08:44.265Z,19.38
2023-03-07T09:14:46.264Z,18.67
2023-03-07T09:20:48.361Z,16.15
2023-03-07T09:26:50.539Z,17.80
2023-03-07T09:32:52.893Z,16.10
2023-03-07T09:38:58.133Z,16.58
2023-03-07T09:45:21.299Z,15.35
2023-03-07T09:51:43.080Z,14.40
2023-03-07T09:57:51.825Z,15.95
2023-03-07T10:03:59.573Z,13.85
2023-03-07T10:10:05.605Z,11.73
2023-03-07T10:16:37.489Z,10.98
2023-03-07T10:22:49.511Z,9.43
2023-03-07T10:28:53.156Z,7.37
2023-03-07T10:35:02.402Z,8.07
2023-03-07T10:41:14.159Z,7.30
2023-03-07T10:47:21.285Z,7.20
2023-03-07T10:53:27.128Z,7.85
2023-03-07T10:59:29.410Z,7.80
2023-03-07T11:05:36.523Z,5.20
2023-03-07T11:11:38.987Z,4.90
2023-03-07T11:17:49.194Z,7.82
2023-03-07T11:24:06.717Z,6.07
2023-03-07T11:30:15.159Z,6.55
2023-03-07T11:36:22.934Z,5.43
2023-03-07T11:42:41.262Z,5.95
2023-03-07T11:49:05.052Z,5.00
2023-03-07T11:55:19.564Z,6.43
2023-03-07T12:01:34.795Z,4.53
2023-03-07T12:07:57.667Z,4.97
2023-03-07T12:14:16.537Z,4.93
2023-03-07T12:20:38.010Z,4.28
2023-03-07T12:27:26.757Z,4.80
2023-03-07T12:33:46.925Z,3.90
2023-03-07T12:40:00.588Z,5.60
2023-03-07T12:46:34.506Z,8.00
2023-03-07T12:53:09.804Z,3.80
2023-03-07T12:59:14.113Z,4.57
2023-03-07T13:05:20.279Z,4.03
2023-03-07T13:11:25.326Z,3.50
2023-03-07T13:17:27.457Z,4.60
2023-03-07T13:23:30.267Z,5.55
2023-03-07T13:30:09.980Z,4.63
2023-03-07T13:36:32.516Z,4.28
2023-03-07T13:42:48.986Z,3.53
2023-03-07T13:48:54.201Z,3.90
2023-03-07T13:54:57.537Z,4.22
2023-03-07T14:01:04.763Z,3.67
2023-03-07T14:07:32.342Z,4.30
2023-03-07T14:13:53.806Z,3.35
2023-03-07T14:20:46.734Z,5.03
2023-03-07T14:26:53.239Z,3.67
2023-03-07T14:32:55.652Z,3.10
2023-03-07T14:39:02.534Z,3.85
2023-03-07T14:45:23.333Z,3.58
2023-03-07T14:51:28.590Z,3.30
2023-03-07T14:57:40.082Z,4.10
2023-03-07T15:03:54.067Z,2.97
2023-03-07T15:09:56.459Z,3.55
2023-03-07T15:16:04.037Z,4.20
2023-03-07T15:22:28.243Z,4.63
2023-03-07T15:28:34.060Z,4.68
2023-03-07T15:34:38.869Z,4.07
2023-03-07T15:40:41.360Z,4.18
2023-03-07T15:46:50.339Z,4.38
2023-03-07T15:52:55.426Z,4.90
2023-03-07T15:59:02.992Z,5.13
2023-03-07T16:05:27.622Z,6.00
2023-03-07T16:11:29.885Z,5.30
2023-03-07T16:17:37.797Z,5.20
2023-03-07T16:23:40.565Z,5.97
2023-03-07T16:35:45.596Z,4.40
2023-03-07T16:41:49.604Z,7.30
2023-03-07T16:47:57.630Z,6.35
2023-03-07T16:54:03.054Z,8.70
2023-03-07T17:00:06.733Z,9.27
2023-03-07T17:06:14.930Z,10.07
2023-03-07T17:12:25.941Z,9.00
2023-03-07T17:18:30.286Z,10.63
2023-03-07T17:24:32.990Z,10.63
2023-03-07T17:30:35.362Z,11.45
2023-03-07T17:36:37.844Z,11.38
2023-03-07T17:42:42.373Z,12.05
2023-03-07T17:48:44.809Z,14.85
2023-03-07T17:54:47.928Z,16.38
2023-03-07T18:00:50.549Z,14.77
2023-03-07T18:06:52.895Z,14.85
2023-03-07T18:12:55.406Z,13.48
2023-03-07T18:19:00.237Z,13.73
2023-03-07T18:25:06.790Z,13.18
2023-03-07T18:31:12.259Z,13.15
2023-03-07T18:37:16.511Z,13.88
2023-03-07T18:43:18.829Z,14.63
2023-03-07T18:49:20.965Z,14.10
2023-03-07T18:55:23.095Z,15.00
2023-03-07T19:01:28.154Z,15.95
2023-03-07T19:07:31.615Z,14.43
2023-03-07T19:13:34.128Z,14.43
2023-03-07T19:19:36.522Z,14.50
2023-03-07T19:25:38.551Z,15.35
2023-03-07T19:31:44.003Z,17.30
2023-03-07T19:37:46.335Z,17.58
2023-03-07T19:43:48.889Z,15.77
2023-03-07T19:49:51.188Z,14.43
2023-03-07T19:55:53.904Z,15.00
2023-03-07T20:01:56.194Z,16.67
2023-03-07T20:07:58.319Z,17.15
2023-03-07T20:14:02.454Z,17.73
2023-03-07T20:20:07.651Z,15.98
2023-03-07T20:26:13.437Z,19.02
2023-03-07T20:32:15.914Z,17.73
2023-03-07T20:38:18.539Z,16.90
2023-03-07T20:44:20.951Z,18.85
2023-03-07T20:50:23.982Z,19.02
2023-03-07T20:56:29.030Z,19.40
2023-03-07T21:02:31.996Z,17.65
2023-03-07T21:14:38.030Z,16.50
2023-03-07T21:20:40.474Z,17.92
2023-03-07T21:26:42.739Z,18.33
2023-03-07T21:32:52.747Z,20.50
2023-03-07T21:38:58.056Z,18.02
2023-03-07T21:45:00.384Z,14.32
2023-03-07T21:51:03.417Z,13.63
2023-03-07T21:57:05.667Z,13.60
2023-03-07T22:03:08.352Z,13.13
2023-03-07T22:09:10.886Z,13.63
2023-03-07T22:15:13.150Z,13.55
2023-03-07T22:21:17.391Z,14.05
2023-03-07T22:27:20.154Z,12.98
2023-03-07T22:33:22.668Z,13.45
2023-03-07T22:39:25.144Z,13.60
2023-03-07T22:45:27.285Z,12.82
2023-03-07T22:51:29.779Z,10.63
2023-03-07T22:57:32.319Z,10.80
2023-03-07T23:03:34.747Z,10.98
2023-03-07T23:09:36.941Z,13.60
2023-03-07T23:15:42.347Z,15.57
2023-03-07T23:21:44.740Z,13.73
2023-03-07T23:27:46.898Z,15.77
2023-03-07T23:33:49.528Z,12.27
2023-03-07T23:39:52.742Z,16.50
2023-03-07T23:45:54.953Z,12.73
2023-03-07T23:51:57.729Z,15.40
